• Join FlightAware (Why Join?)
  • Login
  • US Flag 
10:34AM EST


 

Airport Tracker/Info


-or-


 

Live Flight TrackerFlight Track Log ✈ N6711L ✈ 03-Oct-2013 ✈ KAPF - KOPF

Flight Track Log - Related Links

Times and Time Zones

All times are in EDT time to prevent confusion due to time zone crossing. See the N6711L flight status page for this flight to view local times or setup timezone preferences in your user account.

Time Position Orientation Groundspeed Altitude Reporting Facility
EDT Latitude Longitude Course Direction KTS MPH feet Rate Location/Type
12:29PM 26.1139 -81.6067 64° Northeast 125 144 5,200  Level Miami Center
12:30PM 26.1111 -81.5672 94° East 125 144 6,100 900 Climbing Miami Center
12:31PM 26.1087 -81.5011 138° Southeast  Level Estimated
12:31PM 26.1019 -81.5253 104° East 132 152 7,100  Level Miami Center
12:32PM 26.0885 -81.4605 119° Southeast  Level FlightAware Approximate
12:32PM 26.0825 -81.4806 116° Southeast 159 183 7,100  Level Miami Center
12:33PM 26.0817 -81.4146 64° Northeast  Level Estimated
12:33PM 26.0717 -81.4314 104° East 167 192 7,200  Level Miami Center
12:34PM 26.0564 -81.3847 110° East 162 186 7,200  Level Miami Center
12:35PM 26.0347 -81.3422 120° Southeast 162 186 7,200  Level Miami Center
12:36PM 26.0383 -81.2917 85° East 157 181 7,200 -300 Level Miami Center
12:37PM 26.0481 -81.2411 78° East 157 181 6,700 -420 Descending Miami Center
12:38PM 26.0561 -81.1858 81° East 169 194 6,400 -240 Descending Miami Center
12:39PM 26.0658 -81.1331 78° East 174 200 6,300 -240 Descending Miami Center
12:40PM 26.0717 -81.0800 83° East 174 200 6,000 -360 Descending Miami Center
12:40PM 26.0658 -81.0636 112° Southeast 180 207 5,900 -300 Descending Miami Center
12:41PM 26.0625 -81.0381 98° East 174 200 5,700 -480 Descending Miami Center
12:42PM 26.0550 -81.0056 104° East 179 206 5,400 -420 Descending Miami Center
12:42PM 26.0517 -80.9775 98° East 179 206 5,300 -360 Descending Miami Center
12:43PM 26.0439 -80.9589 115° Southeast 180 207 5,100 -540 Descending Miami Center
12:43PM 26.0386 -80.9172 98° East 184 212 4,800 -660 Descending Miami Center
12:44PM 26.0308 -80.8936 110° East 183 211 4,400 -600 Descending Miami Center
12:44PM 26.0275 -80.8636 97° East 184 212 4,200 -540 Descending Miami Center
12:45PM 26.0200 -80.8403 110° East 182 209 3,900 -540 Descending Miami Center
12:45PM 26.0167 -80.8100 97° East 184 212 3,700 -420 Descending Miami Center
12:46PM 26.0067 -80.7842 113° Southeast 176 203 3,500 -420 Descending Miami Center
12:46PM 26.0011 -80.7586 104° East 179 206 3,300 -540 Descending Miami Center
12:47PM 25.9872 -80.7350 123° Southeast 173 199 3,000 -600 Descending Miami Center
12:47PM 25.9836 -80.7094 99° East 179 206 2,700 -840 Descending Miami Center
12:48PM 25.9719 -80.6839 117° Southeast 175 201 2,200 -720 Descending Miami Center
12:48PM 25.9664 -80.6583 104° East 173 199 2,000 -120 Descending Miami Center
12:49PM 25.9544 -80.6325 117° Southeast 144 166 2,100  Climbing Miami Center
12:49PM 25.9506 -80.6161 105° East 161 185 2,000  Descending Miami Center
12:50PM 25.9408 -80.5928 115° Southeast 151 174 2,100 60 Climbing Miami Center
12:50PM 25.9372 -80.5719 101° East 155 178 2,100  Level Miami Center
12:51PM 25.9231 -80.5483 124° Southeast 144 166 2,100 -360 Level Miami Center
12:52PM 25.9075 -80.5039 111° Southeast 157 181 1,600 -240 Descending Miami Center
12:53PM 25.9025 -80.4553 97° East 134 154 1,700  Climbing Miami Center
12:54PM 25.9033 -80.4183 89° East 109 125 1,700 -60 Level Miami Center
12:55PM 25.9061 -80.3883 84° East 102 117 1,600 -120 Descending Miami Center
12:56PM 25.9067 -80.3631 89° East 93 107 1,500 -420 Descending Miami Center
12:57PM 25.9075 -80.3353 88° East 93 107 900 -600 Descending Miami Center
12:58PM 25.9103 -80.3053 84° East 96 110 400 -540 Descending Miami Center
01:00PM 25.9074 -80.2782 100° East  Level Estimated
01:07PM 25.9074 -80.2782 100° East  Level Estimated